TAF LFOV
METAR LFOV
LFOV 091100Z AUTO 21005KT 160V240 CAVOK 06/03 Q1009=
LFOV 091030Z AUTO VRB03KT CAVOK 04/02 Q1009=
LFOV 091000Z AUTO 20003KT CAVOK 04/01 Q1009=
LFOV 090930Z AUTO 22005KT CAVOK 02/00 Q1009=
LFOV 090900Z AUTO 22006KT 200V260 CAVOK 01/M00 Q1009=
WC LFOV
WS LFOV
WV LFOV